sensor_id;sensor_type;location;lat;lon;timestamp;temperature;humidity
54832;DHT22;40730;53.068;6.572;2023-02-28T00:02:13;3.30;99.90
54832;DHT22;40730;53.068;6.572;2023-02-28T00:04:39;3.30;99.90
54832;DHT22;40730;53.068;6.572;2023-02-28T00:07:04;3.40;99.90
54832;DHT22;40730;53.068;6.572;2023-02-28T00:09:30;3.40;99.90
54832;DHT22;40730;53.068;6.572;2023-02-28T00:11:55;3.40;99.90
54832;DHT22;40730;53.068;6.572;2023-02-28T00:14:21;3.40;99.90
54832;DHT22;40730;53.068;6.572;2023-02-28T00:16:47;3.30;99.90
54832;DHT22;40730;53.068;6.572;2023-02-28T00:19:12;3.20;99.90
54832;DHT22;40730;53.068;6.572;2023-02-28T00:21:38;3.20;99.90
54832;DHT22;40730;53.068;6.572;2023-02-28T00:24:06;3.10;99.90
54832;DHT22;40730;53.068;6.572;2023-02-28T00:26:32;3.10;99.90
54832;DHT22;40730;53.068;6.572;2023-02-28T00:28:58;3.10;99.90
54832;DHT22;40730;53.068;6.572;2023-02-28T00:31:23;3.10;99.90
54832;DHT22;40730;53.068;6.572;2023-02-28T00:33:49;3.10;99.90
54832;DHT22;40730;53.068;6.572;2023-02-28T00:36:16;3.10;99.90
54832;DHT22;40730;53.068;6.572;2023-02-28T00:38:41;3.10;99.90
54832;DHT22;40730;53.068;6.572;2023-02-28T00:41:07;3.10;99.90
54832;DHT22;40730;53.068;6.572;2023-02-28T00:43:34;3.10;99.90
54832;DHT22;40730;53.068;6.572;2023-02-28T00:46:01;3.10;99.90
54832;DHT22;40730;53.068;6.572;2023-02-28T00:48:27;3.10;99.90
54832;DHT22;40730;53.068;6.572;2023-02-28T00:50:53;3.20;99.90
54832;DHT22;40730;53.068;6.572;2023-02-28T00:53:18;3.20;99.90
54832;DHT22;40730;53.068;6.572;2023-02-28T00:55:44;3.20;99.90
54832;DHT22;40730;53.068;6.572;2023-02-28T00:58:10;3.10;99.90
54832;DHT22;40730;53.068;6.572;2023-02-28T01:00:35;3.10;99.90
54832;DHT22;40730;53.068;6.572;2023-02-28T01:03:01;3.10;99.90
54832;DHT22;40730;53.068;6.572;2023-02-28T01:05:26;3.00;99.90
54832;DHT22;40730;53.068;6.572;2023-02-28T01:07:52;3.00;99.90
54832;DHT22;40730;53.068;6.572;2023-02-28T01:10:18;3.00;99.90
54832;DHT22;40730;53.068;6.572;2023-02-28T01:12:44;3.00;99.90
54832;DHT22;40730;53.068;6.572;2023-02-28T01:15:12;2.90;99.90
54832;DHT22;40730;53.068;6.572;2023-02-28T01:17:38;3.00;99.90
54832;DHT22;40730;53.068;6.572;2023-02-28T01:20:03;3.00;99.90
54832;DHT22;40730;53.068;6.572;2023-02-28T01:22:29;3.00;99.90
54832;DHT22;40730;53.068;6.572;2023-02-28T01:24:55;3.10;99.90
54832;DHT22;40730;53.068;6.572;2023-02-28T01:27:20;3.10;99.90
54832;DHT22;40730;53.068;6.572;2023-02-28T01:29:46;3.10;99.90
54832;DHT22;40730;53.068;6.572;2023-02-28T01:32:12;3.10;99.90
54832;DHT22;40730;53.068;6.572;2023-02-28T01:34:37;3.10;99.90
54832;DHT22;40730;53.068;6.572;2023-02-28T01:37:03;3.10;99.90
54832;DHT22;40730;53.068;6.572;2023-02-28T01:39:29;3.10;99.90
54832;DHT22;40730;53.068;6.572;2023-02-28T01:41:55;3.10;99.90
54832;DHT22;40730;53.068;6.572;2023-02-28T01:47:27;3.20;99.90
54832;DHT22;40730;53.068;6.572;2023-02-28T01:49:54;3.20;99.90
54832;DHT22;40730;53.068;6.572;2023-02-28T01:52:21;3.20;99.90
54832;DHT22;40730;53.068;6.572;2023-02-28T01:54:52;3.20;99.90
54832;DHT22;40730;53.068;6.572;2023-02-28T01:57:23;3.20;99.90
54832;DHT22;40730;53.068;6.572;2023-02-28T01:59:57;3.20;99.90
54832;DHT22;40730;53.068;6.572;2023-02-28T02:02:26;3.10;99.90
54832;DHT22;40730;53.068;6.572;2023-02-28T02:07:31;3.10;99.90
54832;DHT22;40730;53.068;6.572;2023-02-28T02:18:34;3.20;99.90
54832;DHT22;40730;53.068;6.572;2023-02-28T02:21:24;3.30;99.90
54832;DHT22;40730;53.068;6.572;2023-02-28T02:34:35;3.40;99.90
54832;DHT22;40730;53.068;6.572;2023-02-28T02:37:29;3.30;99.90
54832;DHT22;40730;53.068;6.572;2023-02-28T02:40:03;3.40;99.90
54832;DHT22;40730;53.068;6.572;2023-02-28T02:42:56;3.40;99.90
54832;DHT22;40730;53.068;6.572;2023-02-28T02:48:11;3.40;99.90
54832;DHT22;40730;53.068;6.572;2023-02-28T02:50:45;3.40;99.90
54832;DHT22;40730;53.068;6.572;2023-02-28T02:53:14;3.40;99.90
54832;DHT22;40730;53.068;6.572;2023-02-28T02:55:43;3.40;99.90
54832;DHT22;40730;53.068;6.572;2023-02-28T02:58:19;3.40;99.90
54832;DHT22;40730;53.068;6.572;2023-02-28T03:00:48;3.40;99.90
54832;DHT22;40730;53.068;6.572;2023-02-28T03:03:16;3.40;99.90
54832;DHT22;40730;53.068;6.572;2023-02-28T03:05:48;3.40;99.90
54832;DHT22;40730;53.068;6.572;2023-02-28T03:08:14;3.40;99.90
54832;DHT22;40730;53.068;6.572;2023-02-28T03:13:11;3.40;99.90
54832;DHT22;40730;53.068;6.572;2023-02-28T03:18:36;3.40;99.90
54832;DHT22;40730;53.068;6.572;2023-02-28T03:21:27;3.40;99.90
54832;DHT22;40730;53.068;6.572;2023-02-28T03:27:11;3.10;99.90
54832;DHT22;40730;53.068;6.572;2023-02-28T03:30:00;3.30;99.90
54832;DHT22;40730;53.068;6.572;2023-02-28T03:32:33;3.30;99.90
54832;DHT22;40730;53.068;6.572;2023-02-28T03:35:12;3.30;99.90
54832;DHT22;40730;53.068;6.572;2023-02-28T03:37:41;3.30;99.90
54832;DHT22;40730;53.068;6.572;2023-02-28T03:40:13;3.30;99.90
54832;DHT22;40730;53.068;6.572;2023-02-28T03:42:44;3.30;99.90
54832;DHT22;40730;53.068;6.572;2023-02-28T03:45:19;3.30;99.90
54832;DHT22;40730;53.068;6.572;2023-02-28T03:47:52;3.30;99.90
54832;DHT22;40730;53.068;6.572;2023-02-28T03:50:22;3.20;99.90
54832;DHT22;40730;53.068;6.572;2023-02-28T03:52:53;3.20;99.90
54832;DHT22;40730;53.068;6.572;2023-02-28T03:55:28;3.20;99.90
54832;DHT22;40730;53.068;6.572;2023-02-28T03:58:10;3.20;99.90
54832;DHT22;40730;53.068;6.572;2023-02-28T04:00:49;3.10;99.90
54832;DHT22;40730;53.068;6.572;2023-02-28T04:03:16;3.10;99.90
54832;DHT22;40730;53.068;6.572;2023-02-28T04:05:53;3.00;99.90
54832;DHT22;40730;53.068;6.572;2023-02-28T04:08:20;2.90;99.90
54832;DHT22;40730;53.068;6.572;2023-02-28T04:10:50;2.90;99.90
54832;DHT22;40730;53.068;6.572;2023-02-28T04:13:18;2.90;99.90
54832;DHT22;40730;53.068;6.572;2023-02-28T04:15:44;2.90;99.90
54832;DHT22;40730;53.068;6.572;2023-02-28T04:18:09;2.90;99.90
54832;DHT22;40730;53.068;6.572;2023-02-28T04:20:35;2.80;99.90
54832;DHT22;40730;53.068;6.572;2023-02-28T04:23:01;2.80;99.90
54832;DHT22;40730;53.068;6.572;2023-02-28T04:25:26;2.80;99.90
54832;DHT22;40730;53.068;6.572;2023-02-28T04:27:52;2.80;99.90
54832;DHT22;40730;53.068;6.572;2023-02-28T04:30:18;2.80;99.90
54832;DHT22;40730;53.068;6.572;2023-02-28T04:32:43;2.80;99.90
54832;DHT22;40730;53.068;6.572;2023-02-28T04:35:09;2.70;99.90
54832;DHT22;40730;53.068;6.572;2023-02-28T04:37:34;2.70;99.90
54832;DHT22;40730;53.068;6.572;2023-02-28T04:40:03;2.70;99.90
54832;DHT22;40730;53.068;6.572;2023-02-28T04:42:29;2.70;99.90
54832;DHT22;40730;53.068;6.572;2023-02-28T04:45:01;2.70;99.90
54832;DHT22;40730;53.068;6.572;2023-02-28T04:47:28;2.90;99.90
54832;DHT22;40730;53.068;6.572;2023-02-28T04:49:53;2.70;99.90
54832;DHT22;40730;53.068;6.572;2023-02-28T04:52:19;2.70;99.90
54832;DHT22;40730;53.068;6.572;2023-02-28T04:54:45;2.60;99.90
54832;DHT22;40730;53.068;6.572;2023-02-28T04:57:10;2.60;99.90
54832;DHT22;40730;53.068;6.572;2023-02-28T04:59:36;2.60;99.90
54832;DHT22;40730;53.068;6.572;2023-02-28T05:02:02;2.70;99.90
54832;DHT22;40730;53.068;6.572;2023-02-28T05:04:33;2.60;99.90
54832;DHT22;40730;53.068;6.572;2023-02-28T05:07:00;2.60;99.90
54832;DHT22;40730;53.068;6.572;2023-02-28T05:09:25;2.60;99.90
54832;DHT22;40730;53.068;6.572;2023-02-28T05:11:51;2.60;99.90
54832;DHT22;40730;53.068;6.572;2023-02-28T05:14:17;2.60;99.90
54832;DHT22;40730;53.068;6.572;2023-02-28T05:16:42;2.60;99.90
54832;DHT22;40730;53.068;6.572;2023-02-28T05:19:08;2.60;99.90
54832;DHT22;40730;53.068;6.572;2023-02-28T05:21:48;2.60;99.90
54832;DHT22;40730;53.068;6.572;2023-02-28T05:24:14;2.60;99.90
54832;DHT22;40730;53.068;6.572;2023-02-28T05:26:41;2.60;99.90
54832;DHT22;40730;53.068;6.572;2023-02-28T05:29:07;2.60;99.90
54832;DHT22;40730;53.068;6.572;2023-02-28T05:31:34;2.60;99.90
54832;DHT22;40730;53.068;6.572;2023-02-28T05:34:01;2.60;99.90
54832;DHT22;40730;53.068;6.572;2023-02-28T05:36:26;2.60;99.90
54832;DHT22;40730;53.068;6.572;2023-02-28T05:38:52;2.50;99.90
54832;DHT22;40730;53.068;6.572;2023-02-28T05:41:18;2.50;99.90
54832;DHT22;40730;53.068;6.572;2023-02-28T05:43:47;2.50;99.90
54832;DHT22;40730;53.068;6.572;2023-02-28T05:46:13;2.50;99.90
54832;DHT22;40730;53.068;6.572;2023-02-28T05:48:41;2.40;99.90
54832;DHT22;40730;53.068;6.572;2023-02-28T05:51:07;2.40;99.90
54832;DHT22;40730;53.068;6.572;2023-02-28T05:53:33;2.40;99.90
54832;DHT22;40730;53.068;6.572;2023-02-28T05:55:59;2.40;99.90
54832;DHT22;40730;53.068;6.572;2023-02-28T05:58:24;2.30;99.90
54832;DHT22;40730;53.068;6.572;2023-02-28T06:00:59;2.30;99.90
54832;DHT22;40730;53.068;6.572;2023-02-28T06:03:26;2.30;99.90
54832;DHT22;40730;53.068;6.572;2023-02-28T06:05:51;2.30;99.90
54832;DHT22;40730;53.068;6.572;2023-02-28T06:08:17;2.30;99.90
54832;DHT22;40730;53.068;6.572;2023-02-28T06:10:43;2.20;99.90
54832;DHT22;40730;53.068;6.572;2023-02-28T06:13:10;2.20;99.90
54832;DHT22;40730;53.068;6.572;2023-02-28T06:15:37;2.20;99.90
54832;DHT22;40730;53.068;6.572;2023-02-28T06:18:03;2.20;99.90
54832;DHT22;40730;53.068;6.572;2023-02-28T06:20:29;2.20;99.90
54832;DHT22;40730;53.068;6.572;2023-02-28T06:22:56;2.20;99.90
54832;DHT22;40730;53.068;6.572;2023-02-28T06:25:25;2.20;99.90
54832;DHT22;40730;53.068;6.572;2023-02-28T06:27:50;2.10;99.90
54832;DHT22;40730;53.068;6.572;2023-02-28T06:30:16;2.10;99.90
54832;DHT22;40730;53.068;6.572;2023-02-28T06:32:42;2.10;99.90
54832;DHT22;40730;53.068;6.572;2023-02-28T06:35:08;2.10;99.90
54832;DHT22;40730;53.068;6.572;2023-02-28T06:37:33;2.10;99.90
54832;DHT22;40730;53.068;6.572;2023-02-28T06:39:59;2.10;99.90
54832;DHT22;40730;53.068;6.572;2023-02-28T06:42:25;2.10;99.90
54832;DHT22;40730;53.068;6.572;2023-02-28T06:44:57;2.00;99.90
54832;DHT22;40730;53.068;6.572;2023-02-28T06:47:24;2.00;99.90
54832;DHT22;40730;53.068;6.572;2023-02-28T06:49:50;2.10;99.90
54832;DHT22;40730;53.068;6.572;2023-02-28T06:52:15;2.00;99.90
54832;DHT22;40730;53.068;6.572;2023-02-28T06:54:41;2.00;99.90
54832;DHT22;40730;53.068;6.572;2023-02-28T06:57:07;2.00;99.90
54832;DHT22;40730;53.068;6.572;2023-02-28T06:59:33;2.00;99.90
54832;DHT22;40730;53.068;6.572;2023-02-28T07:01:58;2.00;99.90
54832;DHT22;40730;53.068;6.572;2023-02-28T07:04:24;2.00;99.90
54832;DHT22;40730;53.068;6.572;2023-02-28T07:06:50;2.00;99.90
54832;DHT22;40730;53.068;6.572;2023-02-28T07:09:15;2.10;99.90
54832;DHT22;40730;53.068;6.572;2023-02-28T07:11:41;2.10;99.90
54832;DHT22;40730;53.068;6.572;2023-02-28T07:14:08;2.10;99.90
54832;DHT22;40730;53.068;6.572;2023-02-28T07:16:35;2.10;99.90
54832;DHT22;40730;53.068;6.572;2023-02-28T07:19:01;2.10;99.90
54832;DHT22;40730;53.068;6.572;2023-02-28T07:21:26;2.10;99.90
54832;DHT22;40730;53.068;6.572;2023-02-28T07:23:52;2.10;99.90
54832;DHT22;40730;53.068;6.572;2023-02-28T07:26:19;2.10;99.90
54832;DHT22;40730;53.068;6.572;2023-02-28T07:28:47;2.20;99.90
54832;DHT22;40730;53.068;6.572;2023-02-28T07:31:14;2.20;99.90
54832;DHT22;40730;53.068;6.572;2023-02-28T07:33:40;2.20;99.90
54832;DHT22;40730;53.068;6.572;2023-02-28T07:36:12;2.30;99.90
54832;DHT22;40730;53.068;6.572;2023-02-28T07:38:44;2.30;99.90
54832;DHT22;40730;53.068;6.572;2023-02-28T07:41:10;2.30;99.90
54832;DHT22;40730;53.068;6.572;2023-02-28T07:43:36;2.30;99.90
54832;DHT22;40730;53.068;6.572;2023-02-28T07:46:10;2.40;99.90
54832;DHT22;40730;53.068;6.572;2023-02-28T07:48:36;2.40;99.90
54832;DHT22;40730;53.068;6.572;2023-02-28T07:51:02;2.40;99.90
54832;DHT22;40730;53.068;6.572;2023-02-28T07:53:28;2.40;99.90
54832;DHT22;40730;53.068;6.572;2023-02-28T07:55:56;2.50;99.90
54832;DHT22;40730;53.068;6.572;2023-02-28T07:58:22;2.50;99.90
54832;DHT22;40730;53.068;6.572;2023-02-28T08:00:47;2.50;99.90
54832;DHT22;40730;53.068;6.572;2023-02-28T08:03:13;2.50;99.90
54832;DHT22;40730;53.068;6.572;2023-02-28T08:05:39;2.60;99.90
54832;DHT22;40730;53.068;6.572;2023-02-28T08:08:06;2.50;99.90
54832;DHT22;40730;53.068;6.572;2023-02-28T08:10:32;2.60;99.90
54832;DHT22;40730;53.068;6.572;2023-02-28T08:12:57;2.60;99.90
54832;DHT22;40730;53.068;6.572;2023-02-28T08:15:23;2.70;99.90
54832;DHT22;40730;53.068;6.572;2023-02-28T08:17:48;2.70;99.90
54832;DHT22;40730;53.068;6.572;2023-02-28T08:20:14;2.80;99.90
54832;DHT22;40730;53.068;6.572;2023-02-28T08:22:40;2.90;99.90
54832;DHT22;40730;53.068;6.572;2023-02-28T08:25:06;2.90;99.90
54832;DHT22;40730;53.068;6.572;2023-02-28T08:27:32;2.90;99.90
54832;DHT22;40730;53.068;6.572;2023-02-28T08:29:58;2.90;99.90
54832;DHT22;40730;53.068;6.572;2023-02-28T08:32:23;3.00;99.90
54832;DHT22;40730;53.068;6.572;2023-02-28T08:34:49;3.00;99.90
54832;DHT22;40730;53.068;6.572;2023-02-28T08:37:15;3.00;99.90
54832;DHT22;40730;53.068;6.572;2023-02-28T08:39:40;3.10;99.90
54832;DHT22;40730;53.068;6.572;2023-02-28T08:42:06;3.20;99.90
54832;DHT22;40730;53.068;6.572;2023-02-28T08:44:32;3.20;99.90
54832;DHT22;40730;53.068;6.572;2023-02-28T08:46:57;3.20;99.90
54832;DHT22;40730;53.068;6.572;2023-02-28T08:49:23;3.20;99.90
54832;DHT22;40730;53.068;6.572;2023-02-28T08:51:48;3.30;99.90
54832;DHT22;40730;53.068;6.572;2023-02-28T08:54:14;3.30;99.90
54832;DHT22;40730;53.068;6.572;2023-02-28T08:56:45;3.40;99.90
54832;DHT22;40730;53.068;6.572;2023-02-28T08:59:13;3.80;99.90
54832;DHT22;40730;53.068;6.572;2023-02-28T09:01:38;4.80;99.90
54832;DHT22;40730;53.068;6.572;2023-02-28T09:04:04;5.80;99.90
54832;DHT22;40730;53.068;6.572;2023-02-28T09:06:32;6.40;99.90
54832;DHT22;40730;53.068;6.572;2023-02-28T09:08:58;7.10;99.90
54832;DHT22;40730;53.068;6.572;2023-02-28T09:11:25;7.40;99.90
54832;DHT22;40730;53.068;6.572;2023-02-28T09:13:50;7.90;99.90
54832;DHT22;40730;53.068;6.572;2023-02-28T09:16:16;8.40;99.90
54832;DHT22;40730;53.068;6.572;2023-02-28T09:18:43;8.80;99.90
54832;DHT22;40730;53.068;6.572;2023-02-28T09:21:14;8.90;99.90
54832;DHT22;40730;53.068;6.572;2023-02-28T09:23:42;8.90;99.90
54832;DHT22;40730;53.068;6.572;2023-02-28T09:26:14;9.20;99.90
54832;DHT22;40730;53.068;6.572;2023-02-28T09:28:40;9.30;99.90
54832;DHT22;40730;53.068;6.572;2023-02-28T09:31:05;9.50;99.90
54832;DHT22;40730;53.068;6.572;2023-02-28T09:33:31;9.70;99.90
54832;DHT22;40730;53.068;6.572;2023-02-28T09:36:02;9.90;99.90
54832;DHT22;40730;53.068;6.572;2023-02-28T09:38:28;9.80;99.90
54832;DHT22;40730;53.068;6.572;2023-02-28T09:40:57;9.90;99.90
54832;DHT22;40730;53.068;6.572;2023-02-28T09:43:31;9.30;99.90
54832;DHT22;40730;53.068;6.572;2023-02-28T09:46:10;8.20;99.90
54832;DHT22;40730;53.068;6.572;2023-02-28T09:48:42;7.60;99.90
54832;DHT22;40730;53.068;6.572;2023-02-28T09:51:33;7.00;99.90
54832;DHT22;40730;53.068;6.572;2023-02-28T09:54:00;6.60;99.90
54832;DHT22;40730;53.068;6.572;2023-02-28T09:56:36;6.40;99.90
54832;DHT22;40730;53.068;6.572;2023-02-28T10:06:49;6.10;99.90
54832;DHT22;40730;53.068;6.572;2023-02-28T10:09:24;6.00;99.90
54832;DHT22;40730;53.068;6.572;2023-02-28T10:11:52;5.90;99.90
54832;DHT22;40730;53.068;6.572;2023-02-28T10:14:21;6.00;99.90
54832;DHT22;40730;53.068;6.572;2023-02-28T10:16:51;6.10;99.90
54832;DHT22;40730;53.068;6.572;2023-02-28T10:21:57;6.00;99.90
54832;DHT22;40730;53.068;6.572;2023-02-28T10:24:34;6.10;99.90
54832;DHT22;40730;53.068;6.572;2023-02-28T10:27:01;6.10;99.90
54832;DHT22;40730;53.068;6.572;2023-02-28T10:29:31;6.30;99.90
54832;DHT22;40730;53.068;6.572;2023-02-28T10:32:01;6.40;99.90
54832;DHT22;40730;53.068;6.572;2023-02-28T10:34:27;6.60;99.90
54832;DHT22;40730;53.068;6.572;2023-02-28T10:36:53;7.00;99.90
54832;DHT22;40730;53.068;6.572;2023-02-28T10:39:42;8.20;99.90
54832;DHT22;40730;53.068;6.572;2023-02-28T10:42:29;9.70;99.90
54832;DHT22;40730;53.068;6.572;2023-02-28T10:47:34;11.50;99.90
54832;DHT22;40730;53.068;6.572;2023-02-28T10:50:00;12.20;99.90
54832;DHT22;40730;53.068;6.572;2023-02-28T10:52:38;12.80;99.90
54832;DHT22;40730;53.068;6.572;2023-02-28T10:55:19;13.30;98.60
54832;DHT22;40730;53.068;6.572;2023-02-28T10:57:46;13.60;97.40
54832;DHT22;40730;53.068;6.572;2023-02-28T11:00:16;14.20;95.00
54832;DHT22;40730;53.068;6.572;2023-02-28T11:02:44;14.70;91.80
54832;DHT22;40730;53.068;6.572;2023-02-28T11:05:39;14.70;75.00
54832;DHT22;40730;53.068;6.572;2023-02-28T11:08:15;14.50;77.00
54832;DHT22;40730;53.068;6.572;2023-02-28T11:10:55;14.70;74.50
54832;DHT22;40730;53.068;6.572;2023-02-28T11:13:26;15.10;70.20
54832;DHT22;40730;53.068;6.572;2023-02-28T11:15:59;15.10;61.90
54832;DHT22;40730;53.068;6.572;2023-02-28T11:18:40;14.90;63.90
54832;DHT22;40730;53.068;6.572;2023-02-28T11:21:07;13.70;62.70
54832;DHT22;40730;53.068;6.572;2023-02-28T11:23:36;12.60;69.70
54832;DHT22;40730;53.068;6.572;2023-02-28T11:26:04;12.20;74.70
54832;DHT22;40730;53.068;6.572;2023-02-28T11:28:39;12.40;80.80
54832;DHT22;40730;53.068;6.572;2023-02-28T11:36:26;14.40;68.80
54832;DHT22;40730;53.068;6.572;2023-02-28T11:38:59;14.50;68.30
54832;DHT22;40730;53.068;6.572;2023-02-28T11:50:38;14.30;67.80
54832;DHT22;40730;53.068;6.572;2023-02-28T12:04:11;15.90;57.90
54832;DHT22;40730;53.068;6.572;2023-02-28T12:06:52;16.30;61.50
54832;DHT22;40730;53.068;6.572;2023-02-28T12:12:29;16.90;58.70
54832;DHT22;40730;53.068;6.572;2023-02-28T12:20:33;17.20;56.00
54832;DHT22;40730;53.068;6.572;2023-02-28T12:28:44;15.80;53.60
54832;DHT22;40730;53.068;6.572;2023-02-28T12:31:19;14.50;56.20
54832;DHT22;40730;53.068;6.572;2023-02-28T12:33:50;13.20;56.80
54832;DHT22;40730;53.068;6.572;2023-02-28T12:36:18;12.00;58.50
54832;DHT22;40730;53.068;6.572;2023-02-28T12:38:55;11.10;62.20
54832;DHT22;40730;53.068;6.572;2023-02-28T12:44:00;10.20;65.80
54832;DHT22;40730;53.068;6.572;2023-02-28T12:46:33;10.10;71.00
54832;DHT22;40730;53.068;6.572;2023-02-28T12:49:33;10.50;75.40
54832;DHT22;40730;53.068;6.572;2023-02-28T12:52:00;10.70;83.40
54832;DHT22;40730;53.068;6.572;2023-02-28T12:59:44;13.50;64.00
54832;DHT22;40730;53.068;6.572;2023-02-28T13:08:18;12.60;62.90
54832;DHT22;40730;53.068;6.572;2023-02-28T13:10:50;12.20;62.80
54832;DHT22;40730;53.068;6.572;2023-02-28T13:13:24;11.90;63.80
54832;DHT22;40730;53.068;6.572;2023-02-28T13:16:09;12.30;62.90
54832;DHT22;40730;53.068;6.572;2023-02-28T13:18:46;12.10;61.10
54832;DHT22;40730;53.068;6.572;2023-02-28T13:21:29;11.20;63.50
54832;DHT22;40730;53.068;6.572;2023-02-28T13:34:34;10.30;88.70
54832;DHT22;40730;53.068;6.572;2023-02-28T13:39:47;10.40;79.00
54832;DHT22;40730;53.068;6.572;2023-02-28T13:42:36;10.90;80.00
54832;DHT22;40730;53.068;6.572;2023-02-28T13:50:27;12.00;65.50
54832;DHT22;40730;53.068;6.572;2023-02-28T13:52:56;11.50;66.20
54832;DHT22;40730;53.068;6.572;2023-02-28T13:55:24;10.60;68.50
54832;DHT22;40730;53.068;6.572;2023-02-28T14:04:04;8.90;86.30
54832;DHT22;40730;53.068;6.572;2023-02-28T14:06:33;8.80;88.10
54832;DHT22;40730;53.068;6.572;2023-02-28T14:11:49;9.00;92.50
54832;DHT22;40730;53.068;6.572;2023-02-28T14:17:07;9.90;74.00
54832;DHT22;40730;53.068;6.572;2023-02-28T14:19:37;9.90;76.90
54832;DHT22;40730;53.068;6.572;2023-02-28T14:22:29;11.00;72.30
54832;DHT22;40730;53.068;6.572;2023-02-28T14:36:08;14.20;56.70
54832;DHT22;40730;53.068;6.572;2023-02-28T14:38:57;14.40;57.70
54832;DHT22;40730;53.068;6.572;2023-02-28T14:41:47;14.30;55.80
54832;DHT22;40730;53.068;6.572;2023-02-28T14:44:20;13.80;55.50
54832;DHT22;40730;53.068;6.572;2023-02-28T14:46:49;13.30;58.40
54832;DHT22;40730;53.068;6.572;2023-02-28T14:51:43;12.70;58.90
54832;DHT22;40730;53.068;6.572;2023-02-28T14:54:14;12.50;60.70
54832;DHT22;40730;53.068;6.572;2023-02-28T14:56:41;12.30;60.50
54832;DHT22;40730;53.068;6.572;2023-02-28T14:59:25;12.10;59.90
54832;DHT22;40730;53.068;6.572;2023-02-28T15:01:51;11.70;60.40
54832;DHT22;40730;53.068;6.572;2023-02-28T15:04:26;11.50;61.30
54832;DHT22;40730;53.068;6.572;2023-02-28T15:07:13;11.20;60.50
54832;DHT22;40730;53.068;6.572;2023-02-28T15:09:39;11.20;60.80
54832;DHT22;40730;53.068;6.572;2023-02-28T15:12:05;10.90;59.20
54832;DHT22;40730;53.068;6.572;2023-02-28T15:14:31;10.30;60.90
54832;DHT22;40730;53.068;6.572;2023-02-28T15:17:02;9.70;63.30
54832;DHT22;40730;53.068;6.572;2023-02-28T15:19:33;9.20;65.10
54832;DHT22;40730;53.068;6.572;2023-02-28T15:22:04;8.80;69.60
54832;DHT22;40730;53.068;6.572;2023-02-28T15:24:35;8.40;72.30
54832;DHT22;40730;53.068;6.572;2023-02-28T15:27:11;8.10;79.10
54832;DHT22;40730;53.068;6.572;2023-02-28T15:29:44;8.00;85.20
54832;DHT22;40730;53.068;6.572;2023-02-28T15:34:51;8.00;94.00
54832;DHT22;40730;53.068;6.572;2023-02-28T15:39:57;8.00;91.60
54832;DHT22;40730;53.068;6.572;2023-02-28T15:42:28;7.80;92.70
54832;DHT22;40730;53.068;6.572;2023-02-28T15:44:54;7.60;94.30
54832;DHT22;40730;53.068;6.572;2023-02-28T15:47:24;7.70;95.10
54832;DHT22;40730;53.068;6.572;2023-02-28T15:50:06;7.90;94.70
54832;DHT22;40730;53.068;6.572;2023-02-28T15:52:39;8.00;95.50
54832;DHT22;40730;53.068;6.572;2023-02-28T15:55:10;7.90;95.50
54832;DHT22;40730;53.068;6.572;2023-02-28T15:57:39;7.90;95.90
54832;DHT22;40730;53.068;6.572;2023-02-28T16:00:11;7.80;96.50
54832;DHT22;40730;53.068;6.572;2023-02-28T16:02:38;7.60;97.50
54832;DHT22;40730;53.068;6.572;2023-02-28T16:07:37;7.50;98.20
54832;DHT22;40730;53.068;6.572;2023-02-28T16:10:05;7.40;97.80
54832;DHT22;40730;53.068;6.572;2023-02-28T16:12:32;7.30;97.90
54832;DHT22;40730;53.068;6.572;2023-02-28T16:15:01;7.20;98.00
54832;DHT22;40730;53.068;6.572;2023-02-28T16:17:34;7.10;98.30
54832;DHT22;40730;53.068;6.572;2023-02-28T16:20:01;7.00;98.70
54832;DHT22;40730;53.068;6.572;2023-02-28T16:22:26;6.80;98.60
54832;DHT22;40730;53.068;6.572;2023-02-28T16:24:52;6.70;98.70
54832;DHT22;40730;53.068;6.572;2023-02-28T16:27:26;6.60;99.50
54832;DHT22;40730;53.068;6.572;2023-02-28T16:29:54;6.40;99.90
54832;DHT22;40730;53.068;6.572;2023-02-28T16:32:19;6.30;99.90
54832;DHT22;40730;53.068;6.572;2023-02-28T16:34:45;6.20;99.90
54832;DHT22;40730;53.068;6.572;2023-02-28T16:37:15;6.10;99.90
54832;DHT22;40730;53.068;6.572;2023-02-28T16:39:43;6.00;99.90
54832;DHT22;40730;53.068;6.572;2023-02-28T16:42:23;5.90;99.90
54832;DHT22;40730;53.068;6.572;2023-02-28T16:44:51;5.80;99.90
54832;DHT22;40730;53.068;6.572;2023-02-28T16:47:17;5.70;99.90
54832;DHT22;40730;53.068;6.572;2023-02-28T16:49:43;5.60;99.90
54832;DHT22;40730;53.068;6.572;2023-02-28T16:52:10;5.50;99.90
54832;DHT22;40730;53.068;6.572;2023-02-28T16:54:37;5.40;99.90
54832;DHT22;40730;53.068;6.572;2023-02-28T16:57:03;5.30;99.90
54832;DHT22;40730;53.068;6.572;2023-02-28T16:59:29;5.20;99.90
54832;DHT22;40730;53.068;6.572;2023-02-28T17:01:56;5.10;99.90
54832;DHT22;40730;53.068;6.572;2023-02-28T17:04:27;5.00;99.90
54832;DHT22;40730;53.068;6.572;2023-02-28T17:06:53;4.90;99.90
54832;DHT22;40730;53.068;6.572;2023-02-28T17:09:23;4.80;99.90
54832;DHT22;40730;53.068;6.572;2023-02-28T17:11:50;4.70;99.90
54832;DHT22;40730;53.068;6.572;2023-02-28T17:14:16;4.60;99.90
54832;DHT22;40730;53.068;6.572;2023-02-28T17:16:42;4.40;99.90
54832;DHT22;40730;53.068;6.572;2023-02-28T17:19:14;4.30;99.90
54832;DHT22;40730;53.068;6.572;2023-02-28T17:21:40;4.20;99.90
54832;DHT22;40730;53.068;6.572;2023-02-28T17:24:07;4.10;99.90
54832;DHT22;40730;53.068;6.572;2023-02-28T17:26:33;4.00;99.90
54832;DHT22;40730;53.068;6.572;2023-02-28T17:28:59;3.90;99.90
54832;DHT22;40730;53.068;6.572;2023-02-28T17:31:26;3.80;99.90
54832;DHT22;40730;53.068;6.572;2023-02-28T17:33:53;3.60;99.90
54832;DHT22;40730;53.068;6.572;2023-02-28T17:36:24;3.50;99.90
54832;DHT22;40730;53.068;6.572;2023-02-28T17:38:51;3.40;99.90
54832;DHT22;40730;53.068;6.572;2023-02-28T17:41:18;3.20;99.90
54832;DHT22;40730;53.068;6.572;2023-02-28T17:43:43;3.10;99.90
54832;DHT22;40730;53.068;6.572;2023-02-28T17:46:23;3.10;99.90
54832;DHT22;40730;53.068;6.572;2023-02-28T17:48:50;3.10;99.90
54832;DHT22;40730;53.068;6.572;2023-02-28T17:51:18;3.00;99.90
54832;DHT22;40730;53.068;6.572;2023-02-28T17:53:44;2.90;99.90
54832;DHT22;40730;53.068;6.572;2023-02-28T17:56:18;2.80;99.90
54832;DHT22;40730;53.068;6.572;2023-02-28T17:58:44;2.70;99.90
54832;DHT22;40730;53.068;6.572;2023-02-28T18:01:09;2.60;99.90
54832;DHT22;40730;53.068;6.572;2023-02-28T18:03:37;2.50;99.90
54832;DHT22;40730;53.068;6.572;2023-02-28T18:06:03;2.40;99.90
54832;DHT22;40730;53.068;6.572;2023-02-28T18:08:29;2.40;99.90
54832;DHT22;40730;53.068;6.572;2023-02-28T18:10:56;2.30;99.90
54832;DHT22;40730;53.068;6.572;2023-02-28T18:13:21;2.30;99.90
54832;DHT22;40730;53.068;6.572;2023-02-28T18:15:47;2.20;99.90
54832;DHT22;40730;53.068;6.572;2023-02-28T18:18:29;2.10;99.90
54832;DHT22;40730;53.068;6.572;2023-02-28T18:20:56;2.00;99.90
54832;DHT22;40730;53.068;6.572;2023-02-28T18:24:02;1.90;99.90
54832;DHT22;40730;53.068;6.572;2023-02-28T18:26:46;1.80;99.90
54832;DHT22;40730;53.068;6.572;2023-02-28T18:29:20;2.20;99.90
54832;DHT22;40730;53.068;6.572;2023-02-28T18:31:46;1.60;99.90